sensor_id;sensor_type;location;lat;lon;timestamp;P1;P2;P0
73749;PMS7003;62058;48.406;-4.514;2023-07-20T00:01:27;0.00;0.00;0.00
73749;PMS7003;62058;48.406;-4.514;2023-07-20T00:03:52;0.00;0.00;0.00
73749;PMS7003;62058;48.406;-4.514;2023-07-20T00:06:23;0.00;0.00;0.00
73749;PMS7003;62058;48.406;-4.514;2023-07-20T00:08:49;0.00;0.00;0.00
73749;PMS7003;62058;48.406;-4.514;2023-07-20T00:11:15;0.00;0.00;0.00
73749;PMS7003;62058;48.406;-4.514;2023-07-20T00:13:40;0.00;0.00;0.00
73749;PMS7003;62058;48.406;-4.514;2023-07-20T00:16:06;0.00;0.00;0.00
73749;PMS7003;62058;48.406;-4.514;2023-07-20T00:18:31;0.00;0.00;0.00
73749;PMS7003;62058;48.406;-4.514;2023-07-20T00:20:56;0.00;0.00;0.00
73749;PMS7003;62058;48.406;-4.514;2023-07-20T00:23:21;0.00;0.00;0.00
73749;PMS7003;62058;48.406;-4.514;2023-07-20T00:25:47;0.00;0.00;0.00
73749;PMS7003;62058;48.406;-4.514;2023-07-20T00:28:12;0.00;0.00;0.00
73749;PMS7003;62058;48.406;-4.514;2023-07-20T00:30:38;0.00;0.00;0.00
73749;PMS7003;62058;48.406;-4.514;2023-07-20T00:33:03;0.00;0.00;0.00
73749;PMS7003;62058;48.406;-4.514;2023-07-20T00:35:28;0.00;0.00;0.00
73749;PMS7003;62058;48.406;-4.514;2023-07-20T00:37:53;0.00;0.00;0.00
73749;PMS7003;62058;48.406;-4.514;2023-07-20T00:40:19;0.00;0.00;0.00
73749;PMS7003;62058;48.406;-4.514;2023-07-20T00:42:44;0.00;0.00;0.00
73749;PMS7003;62058;48.406;-4.514;2023-07-20T00:45:09;0.00;0.00;0.00
73749;PMS7003;62058;48.406;-4.514;2023-07-20T00:47:35;0.00;0.00;0.00
73749;PMS7003;62058;48.406;-4.514;2023-07-20T00:50:01;0.00;0.00;0.00
73749;PMS7003;62058;48.406;-4.514;2023-07-20T00:52:27;0.00;0.00;0.00
73749;PMS7003;62058;48.406;-4.514;2023-07-20T00:54:52;0.00;0.00;0.00
73749;PMS7003;62058;48.406;-4.514;2023-07-20T00:57:21;0.00;0.00;0.00
73749;PMS7003;62058;48.406;-4.514;2023-07-20T00:59:46;0.00;0.00;0.00
73749;PMS7003;62058;48.406;-4.514;2023-07-20T01:02:11;0.00;0.00;0.00
73749;PMS7003;62058;48.406;-4.514;2023-07-20T01:04:36;0.00;0.00;0.00
73749;PMS7003;62058;48.406;-4.514;2023-07-20T01:14:20;0.00;0.00;0.00
73749;PMS7003;62058;48.406;-4.514;2023-07-20T01:16:46;0.00;0.00;0.00
73749;PMS7003;62058;48.406;-4.514;2023-07-20T01:19:14;0.00;0.00;0.00
73749;PMS7003;62058;48.406;-4.514;2023-07-20T01:21:40;0.00;0.00;0.00
73749;PMS7003;62058;48.406;-4.514;2023-07-20T01:29:30;0.00;0.00;0.00
73749;PMS7003;62058;48.406;-4.514;2023-07-20T01:31:57;0.00;0.00;0.00
73749;PMS7003;62058;48.406;-4.514;2023-07-20T01:34:22;0.00;0.00;0.00
73749;PMS7003;62058;48.406;-4.514;2023-07-20T01:36:48;0.00;0.00;0.00
73749;PMS7003;62058;48.406;-4.514;2023-07-20T01:39:14;0.00;0.00;0.00
73749;PMS7003;62058;48.406;-4.514;2023-07-20T01:41:40;0.00;0.00;0.00
73749;PMS7003;62058;48.406;-4.514;2023-07-20T01:44:06;0.00;0.00;0.00
73749;PMS7003;62058;48.406;-4.514;2023-07-20T01:46:31;0.00;0.00;0.00
73749;PMS7003;62058;48.406;-4.514;2023-07-20T01:48:57;0.00;0.00;0.00
73749;PMS7003;62058;48.406;-4.514;2023-07-20T01:51:22;0.00;0.00;0.00
73749;PMS7003;62058;48.406;-4.514;2023-07-20T01:53:47;0.00;0.00;0.00
73749;PMS7003;62058;48.406;-4.514;2023-07-20T01:56:12;0.00;0.00;0.00
73749;PMS7003;62058;48.406;-4.514;2023-07-20T01:58:38;0.00;0.00;0.00
73749;PMS7003;62058;48.406;-4.514;2023-07-20T02:01:03;0.00;0.00;0.00
73749;PMS7003;62058;48.406;-4.514;2023-07-20T02:03:29;0.00;0.00;0.00
73749;PMS7003;62058;48.406;-4.514;2023-07-20T02:05:54;0.00;0.00;0.00
73749;PMS7003;62058;48.406;-4.514;2023-07-20T02:08:19;0.00;0.00;0.00
73749;PMS7003;62058;48.406;-4.514;2023-07-20T02:10:45;0.00;0.00;0.00
73749;PMS7003;62058;48.406;-4.514;2023-07-20T02:13:10;0.00;0.00;0.00
73749;PMS7003;62058;48.406;-4.514;2023-07-20T02:15:35;0.00;0.00;0.00
73749;PMS7003;62058;48.406;-4.514;2023-07-20T02:18:01;0.00;0.00;0.00
73749;PMS7003;62058;48.406;-4.514;2023-07-20T02:20:28;0.00;0.00;0.00
73749;PMS7003;62058;48.406;-4.514;2023-07-20T02:22:53;0.00;0.00;0.00
73749;PMS7003;62058;48.406;-4.514;2023-07-20T02:25:18;0.00;0.00;0.00
73749;PMS7003;62058;48.406;-4.514;2023-07-20T02:27:44;0.00;0.00;0.00
73749;PMS7003;62058;48.406;-4.514;2023-07-20T02:30:09;0.00;0.00;0.00
73749;PMS7003;62058;48.406;-4.514;2023-07-20T02:32:34;0.00;0.00;0.00
73749;PMS7003;62058;48.406;-4.514;2023-07-20T02:35:00;0.00;0.00;0.00
73749;PMS7003;62058;48.406;-4.514;2023-07-20T02:37:25;0.00;0.00;0.00
73749;PMS7003;62058;48.406;-4.514;2023-07-20T02:39:50;0.00;0.00;0.00
73749;PMS7003;62058;48.406;-4.514;2023-07-20T02:42:15;0.00;0.00;0.00
73749;PMS7003;62058;48.406;-4.514;2023-07-20T02:44:41;0.00;0.00;0.00
73749;PMS7003;62058;48.406;-4.514;2023-07-20T02:47:06;0.00;0.00;0.00
73749;PMS7003;62058;48.406;-4.514;2023-07-20T02:49:31;0.00;0.00;0.00
73749;PMS7003;62058;48.406;-4.514;2023-07-20T02:51:57;0.00;0.00;0.00
73749;PMS7003;62058;48.406;-4.514;2023-07-20T02:54:22;0.00;0.00;0.00
73749;PMS7003;62058;48.406;-4.514;2023-07-20T02:56:47;0.00;0.00;0.00
73749;PMS7003;62058;48.406;-4.514;2023-07-20T02:59:12;0.00;0.00;0.00
73749;PMS7003;62058;48.406;-4.514;2023-07-20T03:01:38;0.00;0.00;0.00
73749;PMS7003;62058;48.406;-4.514;2023-07-20T03:04:03;0.00;0.00;0.00
73749;PMS7003;62058;48.406;-4.514;2023-07-20T03:06:29;0.00;0.00;0.00
73749;PMS7003;62058;48.406;-4.514;2023-07-20T03:08:54;0.00;0.00;0.00
73749;PMS7003;62058;48.406;-4.514;2023-07-20T03:11:19;0.00;0.00;0.00
73749;PMS7003;62058;48.406;-4.514;2023-07-20T03:13:45;0.00;0.00;0.00
73749;PMS7003;62058;48.406;-4.514;2023-07-20T03:16:13;0.00;0.00;0.00
73749;PMS7003;62058;48.406;-4.514;2023-07-20T03:18:40;0.00;0.00;0.00
73749;PMS7003;62058;48.406;-4.514;2023-07-20T03:21:06;0.00;0.00;0.00
73749;PMS7003;62058;48.406;-4.514;2023-07-20T03:23:32;0.00;0.00;0.00
73749;PMS7003;62058;48.406;-4.514;2023-07-20T03:25:57;0.00;0.00;0.00
73749;PMS7003;62058;48.406;-4.514;2023-07-20T03:28:23;0.00;0.00;0.00
73749;PMS7003;62058;48.406;-4.514;2023-07-20T03:30:54;0.00;0.00;0.00
73749;PMS7003;62058;48.406;-4.514;2023-07-20T03:33:21;0.00;0.00;0.00
73749;PMS7003;62058;48.406;-4.514;2023-07-20T03:35:46;0.00;0.00;0.00
73749;PMS7003;62058;48.406;-4.514;2023-07-20T03:38:11;0.00;0.00;0.00
73749;PMS7003;62058;48.406;-4.514;2023-07-20T03:40:36;0.00;0.00;0.00
73749;PMS7003;62058;48.406;-4.514;2023-07-20T03:43:02;0.00;0.00;0.00
73749;PMS7003;62058;48.406;-4.514;2023-07-20T03:45:28;0.00;0.00;0.00
73749;PMS7003;62058;48.406;-4.514;2023-07-20T03:47:53;0.00;0.00;0.00
73749;PMS7003;62058;48.406;-4.514;2023-07-20T03:50:18;0.00;0.00;0.00
73749;PMS7003;62058;48.406;-4.514;2023-07-20T03:52:43;0.00;0.00;0.00
73749;PMS7003;62058;48.406;-4.514;2023-07-20T03:55:09;0.00;0.00;0.00
73749;PMS7003;62058;48.406;-4.514;2023-07-20T03:57:34;0.00;0.00;0.00
73749;PMS7003;62058;48.406;-4.514;2023-07-20T03:59:59;0.00;0.00;0.00
73749;PMS7003;62058;48.406;-4.514;2023-07-20T04:02:25;0.00;0.00;0.00
73749;PMS7003;62058;48.406;-4.514;2023-07-20T04:04:50;0.00;0.00;0.00
73749;PMS7003;62058;48.406;-4.514;2023-07-20T04:07:16;0.00;0.00;0.00
73749;PMS7003;62058;48.406;-4.514;2023-07-20T04:09:41;0.00;0.00;0.00
73749;PMS7003;62058;48.406;-4.514;2023-07-20T04:12:06;0.00;0.00;0.00
73749;PMS7003;62058;48.406;-4.514;2023-07-20T04:14:32;0.00;0.00;0.00
73749;PMS7003;62058;48.406;-4.514;2023-07-20T04:16:57;0.00;0.00;0.00
73749;PMS7003;62058;48.406;-4.514;2023-07-20T04:19:22;0.00;0.00;0.00
73749;PMS7003;62058;48.406;-4.514;2023-07-20T04:21:47;0.00;0.00;0.00
73749;PMS7003;62058;48.406;-4.514;2023-07-20T04:24:13;0.00;0.00;0.00
73749;PMS7003;62058;48.406;-4.514;2023-07-20T04:26:38;0.00;0.00;0.00
73749;PMS7003;62058;48.406;-4.514;2023-07-20T04:29:03;0.00;0.00;0.00
73749;PMS7003;62058;48.406;-4.514;2023-07-20T04:31:29;0.00;0.00;0.00
73749;PMS7003;62058;48.406;-4.514;2023-07-20T04:33:57;0.00;0.00;0.00
73749;PMS7003;62058;48.406;-4.514;2023-07-20T04:36:22;0.00;0.00;0.00
73749;PMS7003;62058;48.406;-4.514;2023-07-20T04:38:47;0.00;0.00;0.00
73749;PMS7003;62058;48.406;-4.514;2023-07-20T04:41:13;0.00;0.00;0.00
73749;PMS7003;62058;48.406;-4.514;2023-07-20T04:43:41;0.00;0.00;0.00
73749;PMS7003;62058;48.406;-4.514;2023-07-20T04:46:10;0.00;0.00;0.00
73749;PMS7003;62058;48.406;-4.514;2023-07-20T04:48:36;0.00;0.00;0.00
73749;PMS7003;62058;48.406;-4.514;2023-07-20T04:51:01;0.00;0.00;0.00
73749;PMS7003;62058;48.406;-4.514;2023-07-20T04:53:26;0.00;0.00;0.00
73749;PMS7003;62058;48.406;-4.514;2023-07-20T04:55:51;0.00;0.00;0.00
73749;PMS7003;62058;48.406;-4.514;2023-07-20T04:58:17;0.00;0.00;0.00
73749;PMS7003;62058;48.406;-4.514;2023-07-20T05:00:43;0.00;0.00;0.00
73749;PMS7003;62058;48.406;-4.514;2023-07-20T05:03:09;0.00;0.00;0.00
73749;PMS7003;62058;48.406;-4.514;2023-07-20T05:05:34;0.00;0.00;0.00
73749;PMS7003;62058;48.406;-4.514;2023-07-20T05:07:59;0.00;0.00;0.00
73749;PMS7003;62058;48.406;-4.514;2023-07-20T05:10:24;0.00;0.00;0.00
73749;PMS7003;62058;48.406;-4.514;2023-07-20T05:12:49;0.00;0.00;0.00
73749;PMS7003;62058;48.406;-4.514;2023-07-20T05:15:15;0.00;0.00;0.00
73749;PMS7003;62058;48.406;-4.514;2023-07-20T05:17:40;0.00;0.00;0.00
73749;PMS7003;62058;48.406;-4.514;2023-07-20T05:20:05;0.00;0.00;0.00
73749;PMS7003;62058;48.406;-4.514;2023-07-20T05:22:31;0.00;0.00;0.00
73749;PMS7003;62058;48.406;-4.514;2023-07-20T05:24:56;0.00;0.00;0.00
73749;PMS7003;62058;48.406;-4.514;2023-07-20T05:27:21;0.00;0.00;0.00
73749;PMS7003;62058;48.406;-4.514;2023-07-20T05:29:47;0.00;0.00;0.00
73749;PMS7003;62058;48.406;-4.514;2023-07-20T05:32:13;0.00;0.00;0.00
73749;PMS7003;62058;48.406;-4.514;2023-07-20T05:34:38;0.00;0.00;0.00
73749;PMS7003;62058;48.406;-4.514;2023-07-20T05:37:03;0.00;0.00;0.00
73749;PMS7003;62058;48.406;-4.514;2023-07-20T05:39:29;0.00;0.00;0.00
73749;PMS7003;62058;48.406;-4.514;2023-07-20T05:41:54;0.00;0.00;0.00
73749;PMS7003;62058;48.406;-4.514;2023-07-20T05:44:19;0.00;0.00;0.00
73749;PMS7003;62058;48.406;-4.514;2023-07-20T05:46:44;0.00;0.00;0.00
73749;PMS7003;62058;48.406;-4.514;2023-07-20T05:49:09;0.00;0.00;0.00
73749;PMS7003;62058;48.406;-4.514;2023-07-20T05:51:34;0.00;0.00;0.00
73749;PMS7003;62058;48.406;-4.514;2023-07-20T05:54:00;0.00;0.00;0.00
73749;PMS7003;62058;48.406;-4.514;2023-07-20T05:56:25;0.00;0.00;0.00
73749;PMS7003;62058;48.406;-4.514;2023-07-20T05:58:50;0.00;0.00;0.00
73749;PMS7003;62058;48.406;-4.514;2023-07-20T06:01:16;0.00;0.00;0.00
73749;PMS7003;62058;48.406;-4.514;2023-07-20T06:03:43;0.00;0.00;0.00
73749;PMS7003;62058;48.406;-4.514;2023-07-20T06:06:08;0.00;0.00;0.00
73749;PMS7003;62058;48.406;-4.514;2023-07-20T06:08:36;0.00;0.00;0.00
73749;PMS7003;62058;48.406;-4.514;2023-07-20T06:11:02;0.00;0.00;0.00
73749;PMS7003;62058;48.406;-4.514;2023-07-20T06:13:27;0.00;0.00;0.00
73749;PMS7003;62058;48.406;-4.514;2023-07-20T06:15:52;0.00;0.00;0.00
73749;PMS7003;62058;48.406;-4.514;2023-07-20T06:18:18;0.00;0.00;0.00
73749;PMS7003;62058;48.406;-4.514;2023-07-20T06:20:48;0.00;0.00;0.00
73749;PMS7003;62058;48.406;-4.514;2023-07-20T06:23:13;0.00;0.00;0.00
73749;PMS7003;62058;48.406;-4.514;2023-07-20T06:25:38;0.00;0.00;0.00
73749;PMS7003;62058;48.406;-4.514;2023-07-20T06:28:03;0.00;0.00;0.00
73749;PMS7003;62058;48.406;-4.514;2023-07-20T06:30:30;0.00;0.00;0.00
73749;PMS7003;62058;48.406;-4.514;2023-07-20T06:32:55;0.00;0.00;0.00
73749;PMS7003;62058;48.406;-4.514;2023-07-20T06:35:20;0.00;0.00;0.00
73749;PMS7003;62058;48.406;-4.514;2023-07-20T06:37:45;0.00;0.00;0.00
73749;PMS7003;62058;48.406;-4.514;2023-07-20T06:40:11;0.00;0.00;0.00
73749;PMS7003;62058;48.406;-4.514;2023-07-20T06:42:37;0.00;0.00;0.00
73749;PMS7003;62058;48.406;-4.514;2023-07-20T06:45:02;0.00;0.00;0.00
73749;PMS7003;62058;48.406;-4.514;2023-07-20T06:47:27;0.00;0.00;0.00
73749;PMS7003;62058;48.406;-4.514;2023-07-20T06:49:52;0.00;0.00;0.00
73749;PMS7003;62058;48.406;-4.514;2023-07-20T06:52:18;0.00;0.00;0.00
73749;PMS7003;62058;48.406;-4.514;2023-07-20T06:54:43;0.00;0.00;0.00
73749;PMS7003;62058;48.406;-4.514;2023-07-20T06:57:08;0.00;0.00;0.00
73749;PMS7003;62058;48.406;-4.514;2023-07-20T06:59:33;0.00;0.00;0.00
73749;PMS7003;62058;48.406;-4.514;2023-07-20T07:01:59;0.00;0.00;0.00
73749;PMS7003;62058;48.406;-4.514;2023-07-20T07:04:24;0.00;0.00;0.00
73749;PMS7003;62058;48.406;-4.514;2023-07-20T07:06:49;0.00;0.00;0.00
73749;PMS7003;62058;48.406;-4.514;2023-07-20T07:09:15;0.00;0.00;0.00
73749;PMS7003;62058;48.406;-4.514;2023-07-20T07:11:40;0.00;0.00;0.00
73749;PMS7003;62058;48.406;-4.514;2023-07-20T07:14:05;0.00;0.00;0.00
73749;PMS7003;62058;48.406;-4.514;2023-07-20T07:16:30;0.00;0.00;0.00
73749;PMS7003;62058;48.406;-4.514;2023-07-20T07:18:55;0.00;0.00;0.00
73749;PMS7003;62058;48.406;-4.514;2023-07-20T07:21:21;0.00;0.00;0.00
73749;PMS7003;62058;48.406;-4.514;2023-07-20T07:23:46;0.00;0.00;0.00
73749;PMS7003;62058;48.406;-4.514;2023-07-20T07:26:12;0.00;0.00;0.00
73749;PMS7003;62058;48.406;-4.514;2023-07-20T07:28:37;0.00;0.00;0.00
73749;PMS7003;62058;48.406;-4.514;2023-07-20T07:31:05;0.00;0.00;0.00
73749;PMS7003;62058;48.406;-4.514;2023-07-20T07:33:31;0.00;0.00;0.00
73749;PMS7003;62058;48.406;-4.514;2023-07-20T07:35:56;0.00;0.00;0.00
73749;PMS7003;62058;48.406;-4.514;2023-07-20T07:38:22;0.00;0.00;0.00
73749;PMS7003;62058;48.406;-4.514;2023-07-20T07:40:47;0.00;0.00;0.00
73749;PMS7003;62058;48.406;-4.514;2023-07-20T07:43:13;0.00;0.00;0.00
73749;PMS7003;62058;48.406;-4.514;2023-07-20T07:45:40;0.00;0.00;0.00
73749;PMS7003;62058;48.406;-4.514;2023-07-20T07:48:06;0.00;0.00;0.00
73749;PMS7003;62058;48.406;-4.514;2023-07-20T07:50:31;0.00;0.00;0.00
73749;PMS7003;62058;48.406;-4.514;2023-07-20T07:52:57;0.00;0.00;0.00
73749;PMS7003;62058;48.406;-4.514;2023-07-20T07:55:22;0.00;0.00;0.00
73749;PMS7003;62058;48.406;-4.514;2023-07-20T07:57:47;0.00;0.00;0.00
73749;PMS7003;62058;48.406;-4.514;2023-07-20T08:00:13;0.00;0.00;0.00
73749;PMS7003;62058;48.406;-4.514;2023-07-20T08:02:40;0.00;0.00;0.00
73749;PMS7003;62058;48.406;-4.514;2023-07-20T08:05:05;0.00;0.00;0.00
73749;PMS7003;62058;48.406;-4.514;2023-07-20T08:07:30;0.00;0.00;0.00
73749;PMS7003;62058;48.406;-4.514;2023-07-20T08:09:56;0.00;0.00;0.00
73749;PMS7003;62058;48.406;-4.514;2023-07-20T08:12:21;0.00;0.00;0.00
73749;PMS7003;62058;48.406;-4.514;2023-07-20T08:14:46;0.00;0.00;0.00
73749;PMS7003;62058;48.406;-4.514;2023-07-20T08:17:11;0.00;0.00;0.00
73749;PMS7003;62058;48.406;-4.514;2023-07-20T08:19:37;0.00;0.00;0.00
73749;PMS7003;62058;48.406;-4.514;2023-07-20T08:22:04;0.00;0.00;0.00
73749;PMS7003;62058;48.406;-4.514;2023-07-20T08:24:29;0.00;0.00;0.00
73749;PMS7003;62058;48.406;-4.514;2023-07-20T08:26:55;0.00;0.00;0.00
73749;PMS7003;62058;48.406;-4.514;2023-07-20T08:29:20;0.00;0.00;0.00
73749;PMS7003;62058;48.406;-4.514;2023-07-20T08:31:45;0.00;0.00;0.00
73749;PMS7003;62058;48.406;-4.514;2023-07-20T08:34:11;0.00;0.00;0.00
73749;PMS7003;62058;48.406;-4.514;2023-07-20T08:36:36;0.00;0.00;0.00
73749;PMS7003;62058;48.406;-4.514;2023-07-20T08:39:02;0.00;0.00;0.00
73749;PMS7003;62058;48.406;-4.514;2023-07-20T08:41:28;0.00;0.00;0.00
73749;PMS7003;62058;48.406;-4.514;2023-07-20T08:43:54;0.00;0.00;0.00
73749;PMS7003;62058;48.406;-4.514;2023-07-20T08:46:19;0.00;0.00;0.00
73749;PMS7003;62058;48.406;-4.514;2023-07-20T08:48:45;0.00;0.00;0.00
73749;PMS7003;62058;48.406;-4.514;2023-07-20T08:51:10;0.00;0.00;0.00
73749;PMS7003;62058;48.406;-4.514;2023-07-20T08:53:37;0.00;0.00;0.00
73749;PMS7003;62058;48.406;-4.514;2023-07-20T08:56:03;0.00;0.00;0.00
73749;PMS7003;62058;48.406;-4.514;2023-07-20T08:58:29;0.00;0.00;0.00
73749;PMS7003;62058;48.406;-4.514;2023-07-20T09:00:54;0.00;0.00;0.00
73749;PMS7003;62058;48.406;-4.514;2023-07-20T09:03:20;0.00;0.00;0.00
73749;PMS7003;62058;48.406;-4.514;2023-07-20T09:05:46;0.00;0.00;0.00
73749;PMS7003;62058;48.406;-4.514;2023-07-20T09:08:11;0.00;0.00;0.00
73749;PMS7003;62058;48.406;-4.514;2023-07-20T09:10:36;0.00;0.00;0.00
73749;PMS7003;62058;48.406;-4.514;2023-07-20T09:13:02;0.00;0.00;0.00
73749;PMS7003;62058;48.406;-4.514;2023-07-20T09:15:28;0.00;0.00;0.00
73749;PMS7003;62058;48.406;-4.514;2023-07-20T09:17:53;0.00;0.00;0.00
73749;PMS7003;62058;48.406;-4.514;2023-07-20T09:20:19;0.00;0.00;0.00
73749;PMS7003;62058;48.406;-4.514;2023-07-20T09:22:45;0.00;0.00;0.00
73749;PMS7003;62058;48.406;-4.514;2023-07-20T09:25:14;0.00;0.00;0.00
73749;PMS7003;62058;48.406;-4.514;2023-07-20T09:27:44;0.00;0.00;0.00
73749;PMS7003;62058;48.406;-4.514;2023-07-20T09:30:10;0.00;0.00;0.00
73749;PMS7003;62058;48.406;-4.514;2023-07-20T09:32:43;0.00;0.00;0.00
73749;PMS7003;62058;48.406;-4.514;2023-07-20T09:35:15;0.00;0.00;0.00
73749;PMS7003;62058;48.406;-4.514;2023-07-20T09:37:45;0.00;0.00;0.00
73749;PMS7003;62058;48.406;-4.514;2023-07-20T09:40:11;0.00;0.00;0.00
73749;PMS7003;62058;48.406;-4.514;2023-07-20T09:42:39;0.00;0.00;0.00
73749;PMS7003;62058;48.406;-4.514;2023-07-20T09:45:06;0.00;0.00;0.00
73749;PMS7003;62058;48.406;-4.514;2023-07-20T09:47:32;0.00;0.00;0.00
73749;PMS7003;62058;48.406;-4.514;2023-07-20T09:50:00;0.00;0.00;0.00
73749;PMS7003;62058;48.406;-4.514;2023-07-20T09:52:26;0.00;0.00;0.00
73749;PMS7003;62058;48.406;-4.514;2023-07-20T09:54:51;0.00;0.00;0.00
73749;PMS7003;62058;48.406;-4.514;2023-07-20T09:57:16;0.00;0.00;0.00
73749;PMS7003;62058;48.406;-4.514;2023-07-20T09:59:41;0.00;0.00;0.00
73749;PMS7003;62058;48.406;-4.514;2023-07-20T10:02:09;0.00;0.00;0.00
73749;PMS7003;62058;48.406;-4.514;2023-07-20T10:04:36;0.00;0.00;0.00
73749;PMS7003;62058;48.406;-4.514;2023-07-20T10:07:02;0.00;0.00;0.00
73749;PMS7003;62058;48.406;-4.514;2023-07-20T10:09:30;1.50;1.50;1.50
73749;PMS7003;62058;48.406;-4.514;2023-07-20T10:11:57;0.00;0.00;0.00
73749;PMS7003;62058;48.406;-4.514;2023-07-20T10:14:24;0.00;0.00;0.00
73749;PMS7003;62058;48.406;-4.514;2023-07-20T10:16:50;0.00;0.00;0.00
73749;PMS7003;62058;48.406;-4.514;2023-07-20T10:21:49;0.00;0.00;0.00
73749;PMS7003;62058;48.406;-4.514;2023-07-20T10:24:16;0.00;0.00;0.00
73749;PMS7003;62058;48.406;-4.514;2023-07-20T10:26:43;0.00;0.00;0.00
73749;PMS7003;62058;48.406;-4.514;2023-07-20T10:29:08;0.00;0.00;0.00
73749;PMS7003;62058;48.406;-4.514;2023-07-20T10:31:33;0.00;0.00;0.00
73749;PMS7003;62058;48.406;-4.514;2023-07-20T10:33:59;2.50;2.50;2.50
73749;PMS7003;62058;48.406;-4.514;2023-07-20T10:36:25;0.00;0.00;0.00
73749;PMS7003;62058;48.406;-4.514;2023-07-20T10:38:53;5.50;5.50;5.50
73749;PMS7003;62058;48.406;-4.514;2023-07-20T10:41:20;37.50;35.25;31.00
73749;PMS7003;62058;48.406;-4.514;2023-07-20T10:43:46;85.20;75.00;71.60
73749;PMS7003;62058;48.406;-4.514;2023-07-20T10:46:12;93.67;82.33;81.33
73749;PMS7003;62058;48.406;-4.514;2023-07-20T10:48:59;101.00;94.40;93.80
73749;PMS7003;62058;48.406;-4.514;2023-07-20T10:51:24;107.00;102.20;101.80
73749;PMS7003;62058;48.406;-4.514;2023-07-20T10:53:50;107.00;102.00;102.00
73749;PMS7003;62058;48.406;-4.514;2023-07-20T10:56:20;104.50;97.00;96.75
73749;PMS7003;62058;48.406;-4.514;2023-07-20T10:58:46;100.75;93.25;93.25
73749;PMS7003;62058;48.406;-4.514;2023-07-20T11:01:15;99.25;91.25;91.25
73749;PMS7003;62058;48.406;-4.514;2023-07-20T11:03:41;98.75;91.00;90.75
73749;PMS7003;62058;48.406;-4.514;2023-07-20T11:06:29;76.00;63.67;57.33
73749;PMS7003;62058;48.406;-4.514;2023-07-20T11:08:55;41.00;38.00;33.00
73749;PMS7003;62058;48.406;-4.514;2023-07-20T11:11:21;10.75;10.75;10.75
73749;PMS7003;62058;48.406;-4.514;2023-07-20T11:14:21;29.75;29.00;27.00
73749;PMS7003;62058;48.406;-4.514;2023-07-20T11:16:39;72.00;61.00;54.75
73749;PMS7003;62058;48.406;-4.514;2023-07-20T11:19:05;9.50;9.50;9.50
73749;PMS7003;62058;48.406;-4.514;2023-07-20T11:21:37;18.50;18.50;17.75
73749;PMS7003;62058;48.406;-4.514;2023-07-20T11:24:06;0.25;0.25;0.25
73749;PMS7003;62058;48.406;-4.514;2023-07-20T11:26:39;0.00;0.00;0.00
73749;PMS7003;62058;48.406;-4.514;2023-07-20T11:29:04;0.00;0.00;0.00
73749;PMS7003;62058;48.406;-4.514;2023-07-20T11:31:29;0.00;0.00;0.00
73749;PMS7003;62058;48.406;-4.514;2023-07-20T11:33:54;0.00;0.00;0.00
73749;PMS7003;62058;48.406;-4.514;2023-07-20T11:36:20;0.00;0.00;0.00
73749;PMS7003;62058;48.406;-4.514;2023-07-20T11:38:45;0.00;0.00;0.00
73749;PMS7003;62058;48.406;-4.514;2023-07-20T11:41:11;0.00;0.00;0.00
73749;PMS7003;62058;48.406;-4.514;2023-07-20T11:43:36;0.00;0.00;0.00
73749;PMS7003;62058;48.406;-4.514;2023-07-20T11:46:04;0.00;0.00;0.00
73749;PMS7003;62058;48.406;-4.514;2023-07-20T11:48:29;0.00;0.00;0.00
73749;PMS7003;62058;48.406;-4.514;2023-07-20T11:50:55;0.00;0.00;0.00
73749;PMS7003;62058;48.406;-4.514;2023-07-20T11:53:20;0.00;0.00;0.00
73749;PMS7003;62058;48.406;-4.514;2023-07-20T11:55:46;0.00;0.00;0.00
73749;PMS7003;62058;48.406;-4.514;2023-07-20T11:58:11;0.00;0.00;0.00
73749;PMS7003;62058;48.406;-4.514;2023-07-20T12:00:37;0.00;0.00;0.00
73749;PMS7003;62058;48.406;-4.514;2023-07-20T12:03:04;0.00;0.00;0.00
73749;PMS7003;62058;48.406;-4.514;2023-07-20T12:05:31;0.00;0.00;0.00
73749;PMS7003;62058;48.406;-4.514;2023-07-20T12:07:56;0.00;0.00;0.00
73749;PMS7003;62058;48.406;-4.514;2023-07-20T12:10:26;0.00;0.00;0.00
73749;PMS7003;62058;48.406;-4.514;2023-07-20T12:12:51;0.00;0.00;0.00
73749;PMS7003;62058;48.406;-4.514;2023-07-20T12:15:17;0.00;0.00;0.00
73749;PMS7003;62058;48.406;-4.514;2023-07-20T12:17:45;0.00;0.00;0.00
73749;PMS7003;62058;48.406;-4.514;2023-07-20T12:20:10;0.00;0.00;0.00
73749;PMS7003;62058;48.406;-4.514;2023-07-20T12:22:39;0.00;0.00;0.00
73749;PMS7003;62058;48.406;-4.514;2023-07-20T12:25:07;0.00;0.00;0.00
73749;PMS7003;62058;48.406;-4.514;2023-07-20T12:27:35;0.00;0.00;0.00
73749;PMS7003;62058;48.406;-4.514;2023-07-20T12:30:00;0.00;0.00;0.00
73749;PMS7003;62058;48.406;-4.514;2023-07-20T12:32:25;0.00;0.00;0.00
73749;PMS7003;62058;48.406;-4.514;2023-07-20T12:34:50;0.00;0.00;0.00
73749;PMS7003;62058;48.406;-4.514;2023-07-20T12:37:17;0.00;0.00;0.00
73749;PMS7003;62058;48.406;-4.514;2023-07-20T12:39:42;0.00;0.00;0.00
73749;PMS7003;62058;48.406;-4.514;2023-07-20T12:42:11;0.00;0.00;0.00
73749;PMS7003;62058;48.406;-4.514;2023-07-20T12:44:37;0.00;0.00;0.00
73749;PMS7003;62058;48.406;-4.514;2023-07-20T12:47:02;0.00;0.00;0.00
73749;PMS7003;62058;48.406;-4.514;2023-07-20T12:49:27;0.00;0.00;0.00
73749;PMS7003;62058;48.406;-4.514;2023-07-20T12:51:52;0.00;0.00;0.00
73749;PMS7003;62058;48.406;-4.514;2023-07-20T12:54:18;0.00;0.00;0.00
73749;PMS7003;62058;48.406;-4.514;2023-07-20T12:56:43;0.00;0.00;0.00
73749;PMS7003;62058;48.406;-4.514;2023-07-20T12:59:08;0.00;0.00;0.00
73749;PMS7003;62058;48.406;-4.514;2023-07-20T13:01:33;0.00;0.00;0.00
73749;PMS7003;62058;48.406;-4.514;2023-07-20T13:03:59;0.00;0.00;0.00
73749;PMS7003;62058;48.406;-4.514;2023-07-20T13:06:24;0.00;0.00;0.00
73749;PMS7003;62058;48.406;-4.514;2023-07-20T13:08:49;0.00;0.00;0.00
73749;PMS7003;62058;48.406;-4.514;2023-07-20T13:11:15;0.00;0.00;0.00
73749;PMS7003;62058;48.406;-4.514;2023-07-20T13:13:41;0.00;0.00;0.00
73749;PMS7003;62058;48.406;-4.514;2023-07-20T13:16:06;0.00;0.00;0.00
73749;PMS7003;62058;48.406;-4.514;2023-07-20T13:18:31;0.00;0.00;0.00
73749;PMS7003;62058;48.406;-4.514;2023-07-20T13:20:56;0.00;0.00;0.00
73749;PMS7003;62058;48.406;-4.514;2023-07-20T13:23:22;0.00;0.00;0.00
73749;PMS7003;62058;48.406;-4.514;2023-07-20T13:25:47;0.00;0.00;0.00
73749;PMS7003;62058;48.406;-4.514;2023-07-20T13:28:12;0.00;0.00;0.00
73749;PMS7003;62058;48.406;-4.514;2023-07-20T13:30:37;0.00;0.00;0.00
73749;PMS7003;62058;48.406;-4.514;2023-07-20T13:33:03;0.00;0.00;0.00
73749;PMS7003;62058;48.406;-4.514;2023-07-20T13:35:28;0.00;0.00;0.00
73749;PMS7003;62058;48.406;-4.514;2023-07-20T13:37:53;0.00;0.00;0.00
73749;PMS7003;62058;48.406;-4.514;2023-07-20T13:40:19;0.00;0.00;0.00
73749;PMS7003;62058;48.406;-4.514;2023-07-20T13:42:44;0.00;0.00;0.00
73749;PMS7003;62058;48.406;-4.514;2023-07-20T13:45:10;0.00;0.00;0.00
73749;PMS7003;62058;48.406;-4.514;2023-07-20T13:47:35;0.00;0.00;0.00
73749;PMS7003;62058;48.406;-4.514;2023-07-20T13:50:00;0.00;0.00;0.00
73749;PMS7003;62058;48.406;-4.514;2023-07-20T13:52:26;0.00;0.00;0.00
73749;PMS7003;62058;48.406;-4.514;2023-07-20T13:54:51;0.00;0.00;0.00
73749;PMS7003;62058;48.406;-4.514;2023-07-20T13:57:16;0.00;0.00;0.00
73749;PMS7003;62058;48.406;-4.514;2023-07-20T13:59:42;0.00;0.00;0.00
73749;PMS7003;62058;48.406;-4.514;2023-07-20T14:02:07;0.00;0.00;0.00
73749;PMS7003;62058;48.406;-4.514;2023-07-20T14:04:32;0.00;0.00;0.00
73749;PMS7003;62058;48.406;-4.514;2023-07-20T14:06:57;0.50;0.50;0.50
73749;PMS7003;62058;48.406;-4.514;2023-07-20T14:09:23;0.33;0.33;0.33
73749;PMS7003;62058;48.406;-4.514;2023-07-20T14:11:49;1.00;1.00;1.00
73749;PMS7003;62058;48.406;-4.514;2023-07-20T14:14:14;0.00;0.00;0.00
73749;PMS7003;62058;48.406;-4.514;2023-07-20T14:16:39;0.00;0.00;0.00